sensor_id;sensor_type;location;lat;lon;timestamp;temperature;humidity
29093;DHT22;16167;48.768;14.984;2023-08-17T00:01:00;16.30;87.80
29093;DHT22;16167;48.768;14.984;2023-08-17T00:03:28;16.30;88.10
29093;DHT22;16167;48.768;14.984;2023-08-17T00:05:56;16.30;90.40
29093;DHT22;16167;48.768;14.984;2023-08-17T00:08:24;16.30;91.90
29093;DHT22;16167;48.768;14.984;2023-08-17T00:10:53;16.30;91.60
29093;DHT22;16167;48.768;14.984;2023-08-17T00:13:21;16.30;92.50
29093;DHT22;16167;48.768;14.984;2023-08-17T00:15:50;16.30;92.20
29093;DHT22;16167;48.768;14.984;2023-08-17T00:18:18;16.20;90.20
29093;DHT22;16167;48.768;14.984;2023-08-17T00:20:46;16.20;91.40
29093;DHT22;16167;48.768;14.984;2023-08-17T00:23:14;16.20;90.60
29093;DHT22;16167;48.768;14.984;2023-08-17T00:25:42;16.20;91.00
29093;DHT22;16167;48.768;14.984;2023-08-17T00:28:12;16.20;90.20
29093;DHT22;16167;48.768;14.984;2023-08-17T00:30:40;16.10;90.70
29093;DHT22;16167;48.768;14.984;2023-08-17T00:33:08;16.20;92.40
29093;DHT22;16167;48.768;14.984;2023-08-17T00:35:37;16.10;91.70
29093;DHT22;16167;48.768;14.984;2023-08-17T00:38:05;16.10;92.10
29093;DHT22;16167;48.768;14.984;2023-08-17T00:40:34;16.00;92.10
29093;DHT22;16167;48.768;14.984;2023-08-17T00:43:02;16.00;90.00
29093;DHT22;16167;48.768;14.984;2023-08-17T00:45:31;16.00;91.80
29093;DHT22;16167;48.768;14.984;2023-08-17T00:47:59;16.00;94.70
29093;DHT22;16167;48.768;14.984;2023-08-17T00:50:27;16.00;93.70
29093;DHT22;16167;48.768;14.984;2023-08-17T00:52:56;16.00;91.60
29093;DHT22;16167;48.768;14.984;2023-08-17T00:55:24;16.00;84.60
29093;DHT22;16167;48.768;14.984;2023-08-17T00:57:52;16.00;92.90
29093;DHT22;16167;48.768;14.984;2023-08-17T01:00:21;15.90;92.60
29093;DHT22;16167;48.768;14.984;2023-08-17T01:02:51;15.90;93.40
29093;DHT22;16167;48.768;14.984;2023-08-17T01:05:20;15.90;93.70
29093;DHT22;16167;48.768;14.984;2023-08-17T01:07:48;15.80;95.00
29093;DHT22;16167;48.768;14.984;2023-08-17T01:10:16;15.80;94.60
29093;DHT22;16167;48.768;14.984;2023-08-17T01:12:47;15.80;94.00
29093;DHT22;16167;48.768;14.984;2023-08-17T01:15:17;15.70;93.30
29093;DHT22;16167;48.768;14.984;2023-08-17T01:17:51;15.70;91.60
29093;DHT22;16167;48.768;14.984;2023-08-17T01:20:21;15.70;93.50
29093;DHT22;16167;48.768;14.984;2023-08-17T01:22:51;15.70;94.30
29093;DHT22;16167;48.768;14.984;2023-08-17T01:25:22;15.70;97.00
29093;DHT22;16167;48.768;14.984;2023-08-17T01:27:50;15.70;96.40
29093;DHT22;16167;48.768;14.984;2023-08-17T01:30:18;15.70;97.00
29093;DHT22;16167;48.768;14.984;2023-08-17T01:32:48;15.70;96.60
29093;DHT22;16167;48.768;14.984;2023-08-17T01:35:21;15.60;97.00
29093;DHT22;16167;48.768;14.984;2023-08-17T01:37:51;15.60;96.90
29093;DHT22;16167;48.768;14.984;2023-08-17T01:40:22;15.60;95.30
29093;DHT22;16167;48.768;14.984;2023-08-17T01:42:51;15.60;94.50
29093;DHT22;16167;48.768;14.984;2023-08-17T01:45:19;15.50;95.90
29093;DHT22;16167;48.768;14.984;2023-08-17T01:47:48;15.50;93.00
29093;DHT22;16167;48.768;14.984;2023-08-17T01:50:16;15.50;95.90
29093;DHT22;16167;48.768;14.984;2023-08-17T01:52:44;15.50;95.40
29093;DHT22;16167;48.768;14.984;2023-08-17T01:55:12;15.50;94.10
29093;DHT22;16167;48.768;14.984;2023-08-17T01:57:42;15.50;93.60
29093;DHT22;16167;48.768;14.984;2023-08-17T02:00:10;15.40;93.80
29093;DHT22;16167;48.768;14.984;2023-08-17T02:02:38;15.40;93.10
29093;DHT22;16167;48.768;14.984;2023-08-17T02:05:07;15.40;94.30
29093;DHT22;16167;48.768;14.984;2023-08-17T02:07:35;15.30;95.00
29093;DHT22;16167;48.768;14.984;2023-08-17T02:10:04;15.30;94.20
29093;DHT22;16167;48.768;14.984;2023-08-17T02:12:32;15.30;94.40
29093;DHT22;16167;48.768;14.984;2023-08-17T02:15:01;15.30;94.30
29093;DHT22;16167;48.768;14.984;2023-08-17T02:17:29;15.20;93.90
29093;DHT22;16167;48.768;14.984;2023-08-17T02:19:57;15.20;94.10
29093;DHT22;16167;48.768;14.984;2023-08-17T02:22:25;15.20;94.60
29093;DHT22;16167;48.768;14.984;2023-08-17T02:24:53;15.20;95.90
29093;DHT22;16167;48.768;14.984;2023-08-17T02:27:21;15.10;96.30
29093;DHT22;16167;48.768;14.984;2023-08-17T02:29:50;15.20;97.10
29093;DHT22;16167;48.768;14.984;2023-08-17T02:32:20;15.10;97.20
29093;DHT22;16167;48.768;14.984;2023-08-17T02:34:48;15.20;96.80
29093;DHT22;16167;48.768;14.984;2023-08-17T02:37:15;15.10;96.90
29093;DHT22;16167;48.768;14.984;2023-08-17T02:39:43;15.10;96.10
29093;DHT22;16167;48.768;14.984;2023-08-17T02:42:11;15.10;96.60
29093;DHT22;16167;48.768;14.984;2023-08-17T02:44:39;15.10;96.70
29093;DHT22;16167;48.768;14.984;2023-08-17T02:47:07;15.00;96.30
29093;DHT22;16167;48.768;14.984;2023-08-17T02:49:36;15.00;95.00
29093;DHT22;16167;48.768;14.984;2023-08-17T02:52:04;15.00;92.90
29093;DHT22;16167;48.768;14.984;2023-08-17T02:54:32;15.00;95.60
29093;DHT22;16167;48.768;14.984;2023-08-17T02:57:00;15.00;96.10
29093;DHT22;16167;48.768;14.984;2023-08-17T02:59:28;15.00;96.00
29093;DHT22;16167;48.768;14.984;2023-08-17T03:01:56;15.00;95.10
29093;DHT22;16167;48.768;14.984;2023-08-17T03:04:24;14.90;95.90
29093;DHT22;16167;48.768;14.984;2023-08-17T03:06:54;14.90;96.30
29093;DHT22;16167;48.768;14.984;2023-08-17T03:09:22;14.90;95.40
29093;DHT22;16167;48.768;14.984;2023-08-17T03:11:50;14.90;95.10
29093;DHT22;16167;48.768;14.984;2023-08-17T03:14:18;14.80;95.50
29093;DHT22;16167;48.768;14.984;2023-08-17T03:16:46;14.80;94.40
29093;DHT22;16167;48.768;14.984;2023-08-17T03:19:14;14.80;94.80
29093;DHT22;16167;48.768;14.984;2023-08-17T03:21:42;14.80;96.10
29093;DHT22;16167;48.768;14.984;2023-08-17T03:24:12;14.80;96.10
29093;DHT22;16167;48.768;14.984;2023-08-17T03:26:40;14.80;95.10
29093;DHT22;16167;48.768;14.984;2023-08-17T03:29:07;14.70;97.50
29093;DHT22;16167;48.768;14.984;2023-08-17T03:31:36;14.70;97.30
29093;DHT22;16167;48.768;14.984;2023-08-17T03:34:04;14.70;96.10
29093;DHT22;16167;48.768;14.984;2023-08-17T03:36:32;14.70;95.80
29093;DHT22;16167;48.768;14.984;2023-08-17T03:39:00;14.60;98.60
29093;DHT22;16167;48.768;14.984;2023-08-17T03:41:30;14.60;98.80
29093;DHT22;16167;48.768;14.984;2023-08-17T03:43:58;14.60;96.70
29093;DHT22;16167;48.768;14.984;2023-08-17T03:46:26;14.60;96.20
29093;DHT22;16167;48.768;14.984;2023-08-17T03:48:54;14.60;98.90
29093;DHT22;16167;48.768;14.984;2023-08-17T03:51:22;14.60;98.30
29093;DHT22;16167;48.768;14.984;2023-08-17T03:53:50;14.60;99.30
29093;DHT22;16167;48.768;14.984;2023-08-17T03:56:19;14.60;99.00
29093;DHT22;16167;48.768;14.984;2023-08-17T03:58:49;14.60;96.30
29093;DHT22;16167;48.768;14.984;2023-08-17T04:01:18;14.60;98.20
29093;DHT22;16167;48.768;14.984;2023-08-17T04:03:46;14.60;96.40
29093;DHT22;16167;48.768;14.984;2023-08-17T04:06:14;14.60;98.80
29093;DHT22;16167;48.768;14.984;2023-08-17T04:08:42;14.60;99.10
29093;DHT22;16167;48.768;14.984;2023-08-17T04:11:10;14.60;99.90
29093;DHT22;16167;48.768;14.984;2023-08-17T04:13:38;14.60;99.60
29093;DHT22;16167;48.768;14.984;2023-08-17T04:16:07;14.60;99.30
29093;DHT22;16167;48.768;14.984;2023-08-17T04:18:35;14.60;98.50
29093;DHT22;16167;48.768;14.984;2023-08-17T04:21:03;14.60;97.00
29093;DHT22;16167;48.768;14.984;2023-08-17T04:23:31;14.60;96.30
29093;DHT22;16167;48.768;14.984;2023-08-17T04:25:59;14.60;96.10
29093;DHT22;16167;48.768;14.984;2023-08-17T04:28:27;14.70;96.80
29093;DHT22;16167;48.768;14.984;2023-08-17T04:30:55;14.70;92.20
29093;DHT22;16167;48.768;14.984;2023-08-17T04:33:24;14.70;95.40
29093;DHT22;16167;48.768;14.984;2023-08-17T04:35:52;14.70;97.60
29093;DHT22;16167;48.768;14.984;2023-08-17T04:38:21;14.70;96.40
29093;DHT22;16167;48.768;14.984;2023-08-17T04:40:49;14.80;96.60
29093;DHT22;16167;48.768;14.984;2023-08-17T04:43:17;14.80;96.00
29093;DHT22;16167;48.768;14.984;2023-08-17T04:45:45;14.80;99.20
29093;DHT22;16167;48.768;14.984;2023-08-17T04:48:14;14.90;98.20
29093;DHT22;16167;48.768;14.984;2023-08-17T04:50:44;14.90;97.60
29093;DHT22;16167;48.768;14.984;2023-08-17T04:53:12;15.00;99.60
29093;DHT22;16167;48.768;14.984;2023-08-17T04:55:41;15.00;98.70
29093;DHT22;16167;48.768;14.984;2023-08-17T04:58:09;15.10;94.70
29093;DHT22;16167;48.768;14.984;2023-08-17T05:00:37;15.10;95.60
29093;DHT22;16167;48.768;14.984;2023-08-17T05:03:05;15.20;96.40
29093;DHT22;16167;48.768;14.984;2023-08-17T05:05:44;15.20;96.50
29093;DHT22;16167;48.768;14.984;2023-08-17T05:08:12;15.30;96.10
29093;DHT22;16167;48.768;14.984;2023-08-17T05:10:40;15.40;97.20
29093;DHT22;16167;48.768;14.984;2023-08-17T05:13:08;15.40;98.20
29093;DHT22;16167;48.768;14.984;2023-08-17T05:15:36;15.50;95.40
29093;DHT22;16167;48.768;14.984;2023-08-17T05:18:04;15.60;95.00
29093;DHT22;16167;48.768;14.984;2023-08-17T05:20:32;15.70;95.10
29093;DHT22;16167;48.768;14.984;2023-08-17T05:23:02;15.80;94.90
29093;DHT22;16167;48.768;14.984;2023-08-17T05:25:30;15.90;93.00
29093;DHT22;16167;48.768;14.984;2023-08-17T05:27:58;16.00;95.10
29093;DHT22;16167;48.768;14.984;2023-08-17T05:30:26;16.10;94.80
29093;DHT22;16167;48.768;14.984;2023-08-17T05:32:54;16.20;91.10
29093;DHT22;16167;48.768;14.984;2023-08-17T05:35:22;16.30;88.00
29093;DHT22;16167;48.768;14.984;2023-08-17T05:37:50;16.40;80.60
29093;DHT22;16167;48.768;14.984;2023-08-17T05:40:19;16.40;81.90
29093;DHT22;16167;48.768;14.984;2023-08-17T05:42:47;16.50;83.20
29093;DHT22;16167;48.768;14.984;2023-08-17T05:45:15;16.60;82.10
29093;DHT22;16167;48.768;14.984;2023-08-17T05:47:43;16.70;82.30
29093;DHT22;16167;48.768;14.984;2023-08-17T05:50:12;16.80;80.50
29093;DHT22;16167;48.768;14.984;2023-08-17T05:52:40;17.00;82.20
29093;DHT22;16167;48.768;14.984;2023-08-17T05:55:08;17.00;82.00
29093;DHT22;16167;48.768;14.984;2023-08-17T05:57:38;17.10;76.40
29093;DHT22;16167;48.768;14.984;2023-08-17T06:00:06;17.30;66.60
29093;DHT22;16167;48.768;14.984;2023-08-17T06:02:36;17.40;68.20
29093;DHT22;16167;48.768;14.984;2023-08-17T06:05:04;17.50;70.80
29093;DHT22;16167;48.768;14.984;2023-08-17T06:07:32;17.70;72.30
29093;DHT22;16167;48.768;14.984;2023-08-17T06:10:03;17.80;64.20
29093;DHT22;16167;48.768;14.984;2023-08-17T06:12:31;18.00;63.40
29093;DHT22;16167;48.768;14.984;2023-08-17T06:15:01;18.20;59.80
29093;DHT22;16167;48.768;14.984;2023-08-17T06:17:29;18.40;57.80
29093;DHT22;16167;48.768;14.984;2023-08-17T06:19:57;18.50;51.40
29093;DHT22;16167;48.768;14.984;2023-08-17T06:22:25;18.70;54.00
29093;DHT22;16167;48.768;14.984;2023-08-17T06:24:53;18.90;52.10
29093;DHT22;16167;48.768;14.984;2023-08-17T06:27:20;19.00;43.10
29093;DHT22;16167;48.768;14.984;2023-08-17T06:29:48;19.20;42.00
29093;DHT22;16167;48.768;14.984;2023-08-17T06:32:18;19.40;31.30
29093;DHT22;16167;48.768;14.984;2023-08-17T06:34:46;19.50;32.70
29093;DHT22;16167;48.768;14.984;2023-08-17T06:37:14;19.70;30.80
29093;DHT22;16167;48.768;14.984;2023-08-17T06:39:42;19.90;30.60
29093;DHT22;16167;48.768;14.984;2023-08-17T06:42:10;20.10;19.80
29093;DHT22;16167;48.768;14.984;2023-08-17T06:44:38;20.30;17.30
29093;DHT22;16167;48.768;14.984;2023-08-17T06:47:06;20.40;10.90
29093;DHT22;16167;48.768;14.984;2023-08-17T06:49:36;20.60;4.60
29093;DHT22;16167;48.768;14.984;2023-08-17T06:52:04;20.80;1.00
29093;DHT22;16167;48.768;14.984;2023-08-17T06:54:32;20.90;1.00
29093;DHT22;16167;48.768;14.984;2023-08-17T06:57:00;21.00;1.00
29093;DHT22;16167;48.768;14.984;2023-08-17T06:59:28;21.20;1.00
29093;DHT22;16167;48.768;14.984;2023-08-17T07:01:56;21.40;1.00
29093;DHT22;16167;48.768;14.984;2023-08-17T07:04:24;21.40;1.00
29093;DHT22;16167;48.768;14.984;2023-08-17T07:06:54;21.60;1.00
29093;DHT22;16167;48.768;14.984;2023-08-17T07:09:22;21.70;1.00
29093;DHT22;16167;48.768;14.984;2023-08-17T07:11:50;21.80;1.00
29093;DHT22;16167;48.768;14.984;2023-08-17T07:14:18;22.00;1.00
29093;DHT22;16167;48.768;14.984;2023-08-17T07:16:48;22.10;1.00
29093;DHT22;16167;48.768;14.984;2023-08-17T07:19:16;22.20;1.00
29093;DHT22;16167;48.768;14.984;2023-08-17T07:21:45;22.30;1.00
29093;DHT22;16167;48.768;14.984;2023-08-17T07:24:15;22.50;1.00
29093;DHT22;16167;48.768;14.984;2023-08-17T07:26:43;22.70;1.00
29093;DHT22;16167;48.768;14.984;2023-08-17T07:29:11;22.90;1.00
29093;DHT22;16167;48.768;14.984;2023-08-17T07:31:39;23.00;1.00
29093;DHT22;16167;48.768;14.984;2023-08-17T07:34:09;23.10;1.00
29093;DHT22;16167;48.768;14.984;2023-08-17T07:36:37;23.30;1.00
29093;DHT22;16167;48.768;14.984;2023-08-17T07:39:05;23.50;1.00
29093;DHT22;16167;48.768;14.984;2023-08-17T07:41:35;23.60;1.00
29093;DHT22;16167;48.768;14.984;2023-08-17T07:44:03;23.80;1.00
29093;DHT22;16167;48.768;14.984;2023-08-17T07:46:31;23.90;1.00
29093;DHT22;16167;48.768;14.984;2023-08-17T07:48:59;24.10;1.00
29093;DHT22;16167;48.768;14.984;2023-08-17T07:51:27;24.20;1.00
29093;DHT22;16167;48.768;14.984;2023-08-17T07:53:57;24.40;1.00
29093;DHT22;16167;48.768;14.984;2023-08-17T07:56:25;24.50;1.00
29093;DHT22;16167;48.768;14.984;2023-08-17T07:58:54;24.60;1.00
29093;DHT22;16167;48.768;14.984;2023-08-17T08:01:22;24.80;1.00
29093;DHT22;16167;48.768;14.984;2023-08-17T08:03:51;25.00;1.00
29093;DHT22;16167;48.768;14.984;2023-08-17T08:06:19;25.20;1.00
29093;DHT22;16167;48.768;14.984;2023-08-17T08:08:48;25.40;1.00
29093;DHT22;16167;48.768;14.984;2023-08-17T08:11:16;25.60;1.00
29093;DHT22;16167;48.768;14.984;2023-08-17T08:13:44;25.80;1.00
29093;DHT22;16167;48.768;14.984;2023-08-17T08:16:14;26.00;1.00
29093;DHT22;16167;48.768;14.984;2023-08-17T08:18:42;26.20;1.00
29093;DHT22;16167;48.768;14.984;2023-08-17T08:21:10;26.40;1.00
29093;DHT22;16167;48.768;14.984;2023-08-17T08:23:38;26.50;1.00
29093;DHT22;16167;48.768;14.984;2023-08-17T08:26:06;26.60;1.00
29093;DHT22;16167;48.768;14.984;2023-08-17T08:28:34;26.80;1.00
29093;DHT22;16167;48.768;14.984;2023-08-17T08:31:02;27.00;1.00
29093;DHT22;16167;48.768;14.984;2023-08-17T08:33:32;27.20;1.00
29093;DHT22;16167;48.768;14.984;2023-08-17T08:36:00;27.30;1.00
29093;DHT22;16167;48.768;14.984;2023-08-17T08:38:28;27.40;1.00
29093;DHT22;16167;48.768;14.984;2023-08-17T08:40:56;27.40;1.00
29093;DHT22;16167;48.768;14.984;2023-08-17T08:43:25;27.60;1.00
29093;DHT22;16167;48.768;14.984;2023-08-17T08:45:53;27.70;1.00
29093;DHT22;16167;48.768;14.984;2023-08-17T08:48:22;27.60;1.00
29093;DHT22;16167;48.768;14.984;2023-08-17T08:50:51;27.80;1.00
29093;DHT22;16167;48.768;14.984;2023-08-17T08:53:24;28.10;1.00
29093;DHT22;16167;48.768;14.984;2023-08-17T08:55:53;28.20;1.00
29093;DHT22;16167;48.768;14.984;2023-08-17T08:58:22;28.30;1.00
29093;DHT22;16167;48.768;14.984;2023-08-17T09:00:51;28.50;1.00
29093;DHT22;16167;48.768;14.984;2023-08-17T09:03:20;28.60;1.00
29093;DHT22;16167;48.768;14.984;2023-08-17T09:05:49;28.90;1.00
29093;DHT22;16167;48.768;14.984;2023-08-17T09:08:20;29.00;1.00
29093;DHT22;16167;48.768;14.984;2023-08-17T09:10:48;28.90;1.00
29093;DHT22;16167;48.768;14.984;2023-08-17T09:13:16;28.50;1.00
29093;DHT22;16167;48.768;14.984;2023-08-17T09:15:44;28.30;1.00
29093;DHT22;16167;48.768;14.984;2023-08-17T09:18:12;28.20;1.00
29093;DHT22;16167;48.768;14.984;2023-08-17T09:20:41;28.20;1.00
29093;DHT22;16167;48.768;14.984;2023-08-17T09:23:12;28.20;1.00
29093;DHT22;16167;48.768;14.984;2023-08-17T09:25:43;28.40;1.00
29093;DHT22;16167;48.768;14.984;2023-08-17T09:28:12;28.80;1.00
29093;DHT22;16167;48.768;14.984;2023-08-17T09:30:54;29.00;1.00
29093;DHT22;16167;48.768;14.984;2023-08-17T09:33:22;29.10;1.00
29093;DHT22;16167;48.768;14.984;2023-08-17T09:35:51;29.40;1.00
29093;DHT22;16167;48.768;14.984;2023-08-17T09:38:24;29.70;1.00
29093;DHT22;16167;48.768;14.984;2023-08-17T09:40:54;29.80;1.00
29093;DHT22;16167;48.768;14.984;2023-08-17T09:43:22;30.00;1.00
29093;DHT22;16167;48.768;14.984;2023-08-17T09:45:51;29.80;1.00
29093;DHT22;16167;48.768;14.984;2023-08-17T09:48:22;30.00;1.00
29093;DHT22;16167;48.768;14.984;2023-08-17T09:50:58;30.20;1.00
29093;DHT22;16167;48.768;14.984;2023-08-17T09:53:28;30.00;1.00
29093;DHT22;16167;48.768;14.984;2023-08-17T09:55:57;29.60;1.00
29093;DHT22;16167;48.768;14.984;2023-08-17T09:58:26;29.60;1.00
29093;DHT22;16167;48.768;14.984;2023-08-17T10:00:57;29.50;1.00
29093;DHT22;16167;48.768;14.984;2023-08-17T10:03:26;30.00;1.00
29093;DHT22;16167;48.768;14.984;2023-08-17T10:05:56;29.90;1.00
29093;DHT22;16167;48.768;14.984;2023-08-17T10:08:26;30.30;1.00
29093;DHT22;16167;48.768;14.984;2023-08-17T10:10:55;30.20;1.00
29093;DHT22;16167;48.768;14.984;2023-08-17T10:13:28;30.20;1.00
29093;DHT22;16167;48.768;14.984;2023-08-17T10:16:01;30.50;1.00
29093;DHT22;16167;48.768;14.984;2023-08-17T10:18:31;30.40;1.00
29093;DHT22;16167;48.768;14.984;2023-08-17T10:21:06;30.10;1.00
29093;DHT22;16167;48.768;14.984;2023-08-17T10:23:34;30.20;1.00
29093;DHT22;16167;48.768;14.984;2023-08-17T10:26:08;30.00;1.00
29093;DHT22;16167;48.768;14.984;2023-08-17T10:28:38;30.20;1.00
29093;DHT22;16167;48.768;14.984;2023-08-17T10:31:06;30.60;1.00
29093;DHT22;16167;48.768;14.984;2023-08-17T10:33:37;31.00;1.00
29093;DHT22;16167;48.768;14.984;2023-08-17T10:36:08;31.40;1.00
29093;DHT22;16167;48.768;14.984;2023-08-17T10:38:36;31.00;1.00
29093;DHT22;16167;48.768;14.984;2023-08-17T10:41:08;31.10;1.00
29093;DHT22;16167;48.768;14.984;2023-08-17T10:46:20;31.10;1.00
29093;DHT22;16167;48.768;14.984;2023-08-17T10:48:48;31.50;1.00
29093;DHT22;16167;48.768;14.984;2023-08-17T10:51:16;31.70;1.00
29093;DHT22;16167;48.768;14.984;2023-08-17T10:53:51;31.80;1.00
29093;DHT22;16167;48.768;14.984;2023-08-17T10:56:20;32.20;1.00
29093;DHT22;16167;48.768;14.984;2023-08-17T10:58:54;32.50;1.00
29093;DHT22;16167;48.768;14.984;2023-08-17T11:04:10;32.80;1.00
29093;DHT22;16167;48.768;14.984;2023-08-17T11:06:38;33.10;1.00
29093;DHT22;16167;48.768;14.984;2023-08-17T11:09:07;32.80;1.00
29093;DHT22;16167;48.768;14.984;2023-08-17T11:11:35;33.00;1.00
29093;DHT22;16167;48.768;14.984;2023-08-17T11:14:03;33.20;1.00
29093;DHT22;16167;48.768;14.984;2023-08-17T11:16:31;33.60;1.00
29093;DHT22;16167;48.768;14.984;2023-08-17T11:19:00;32.90;1.00
29093;DHT22;16167;48.768;14.984;2023-08-17T11:21:29;32.30;1.00
29093;DHT22;16167;48.768;14.984;2023-08-17T11:23:58;32.50;1.00
29093;DHT22;16167;48.768;14.984;2023-08-17T11:26:27;32.80;1.00
29093;DHT22;16167;48.768;14.984;2023-08-17T11:29:01;33.30;1.00
29093;DHT22;16167;48.768;14.984;2023-08-17T11:31:31;33.80;1.00
29093;DHT22;16167;48.768;14.984;2023-08-17T11:33:59;33.30;1.00
29093;DHT22;16167;48.768;14.984;2023-08-17T11:36:29;32.80;1.00
29093;DHT22;16167;48.768;14.984;2023-08-17T11:38:57;32.70;1.00
29093;DHT22;16167;48.768;14.984;2023-08-17T11:41:25;32.80;1.00
29093;DHT22;16167;48.768;14.984;2023-08-17T11:43:53;33.10;1.00
29093;DHT22;16167;48.768;14.984;2023-08-17T11:46:22;32.70;1.00
29093;DHT22;16167;48.768;14.984;2023-08-17T11:48:54;32.30;1.00
29093;DHT22;16167;48.768;14.984;2023-08-17T11:51:29;31.80;1.00
29093;DHT22;16167;48.768;14.984;2023-08-17T11:53:58;31.60;1.00
29093;DHT22;16167;48.768;14.984;2023-08-17T11:56:26;31.90;1.00
29093;DHT22;16167;48.768;14.984;2023-08-17T11:58:54;31.80;1.00
29093;DHT22;16167;48.768;14.984;2023-08-17T12:01:22;31.90;1.00
29093;DHT22;16167;48.768;14.984;2023-08-17T12:03:50;32.00;1.00
29093;DHT22;16167;48.768;14.984;2023-08-17T12:06:18;32.60;1.00
29093;DHT22;16167;48.768;14.984;2023-08-17T12:08:48;33.20;1.00
29093;DHT22;16167;48.768;14.984;2023-08-17T12:11:16;33.20;1.00
29093;DHT22;16167;48.768;14.984;2023-08-17T12:13:48;33.50;1.00
29093;DHT22;16167;48.768;14.984;2023-08-17T12:16:16;33.90;1.00
29093;DHT22;16167;48.768;14.984;2023-08-17T12:18:44;34.20;1.00
29093;DHT22;16167;48.768;14.984;2023-08-17T12:21:13;34.20;1.00
29093;DHT22;16167;48.768;14.984;2023-08-17T12:23:41;33.40;1.00
29093;DHT22;16167;48.768;14.984;2023-08-17T12:26:10;32.70;1.00
29093;DHT22;16167;48.768;14.984;2023-08-17T12:28:45;32.00;1.00
29093;DHT22;16167;48.768;14.984;2023-08-17T12:31:13;31.40;1.00
29093;DHT22;16167;48.768;14.984;2023-08-17T12:33:41;31.60;1.00
29093;DHT22;16167;48.768;14.984;2023-08-17T12:36:09;32.20;1.00
29093;DHT22;16167;48.768;14.984;2023-08-17T12:38:37;32.70;1.00
29093;DHT22;16167;48.768;14.984;2023-08-17T12:41:12;33.20;1.00
29093;DHT22;16167;48.768;14.984;2023-08-17T12:43:40;33.90;1.00
29093;DHT22;16167;48.768;14.984;2023-08-17T12:46:08;34.20;1.00
29093;DHT22;16167;48.768;14.984;2023-08-17T12:48:37;34.50;1.00
29093;DHT22;16167;48.768;14.984;2023-08-17T12:51:05;34.90;1.00
29093;DHT22;16167;48.768;14.984;2023-08-17T12:53:34;35.10;1.00
29093;DHT22;16167;48.768;14.984;2023-08-17T12:56:02;34.90;1.00
29093;DHT22;16167;48.768;14.984;2023-08-17T12:58:31;34.70;1.00
29093;DHT22;16167;48.768;14.984;2023-08-17T13:00:59;34.90;1.00
29093;DHT22;16167;48.768;14.984;2023-08-17T13:03:27;35.10;1.00
29093;DHT22;16167;48.768;14.984;2023-08-17T13:05:55;35.20;1.00
29093;DHT22;16167;48.768;14.984;2023-08-17T13:08:23;35.30;1.00
29093;DHT22;16167;48.768;14.984;2023-08-17T13:10:52;35.50;1.00
29093;DHT22;16167;48.768;14.984;2023-08-17T13:13:20;35.80;1.00
29093;DHT22;16167;48.768;14.984;2023-08-17T13:15:49;36.10;1.00
29093;DHT22;16167;48.768;14.984;2023-08-17T13:18:17;36.20;1.00
29093;DHT22;16167;48.768;14.984;2023-08-17T13:20:45;36.40;1.00
29093;DHT22;16167;48.768;14.984;2023-08-17T13:23:13;35.60;1.00
29093;DHT22;16167;48.768;14.984;2023-08-17T13:25:42;34.80;1.00
29093;DHT22;16167;48.768;14.984;2023-08-17T13:28:10;34.80;1.00
29093;DHT22;16167;48.768;14.984;2023-08-17T13:30:38;35.20;1.00
29093;DHT22;16167;48.768;14.984;2023-08-17T13:33:08;35.50;1.00
29093;DHT22;16167;48.768;14.984;2023-08-17T13:35:36;35.80;1.00
29093;DHT22;16167;48.768;14.984;2023-08-17T13:38:04;36.00;1.00
29093;DHT22;16167;48.768;14.984;2023-08-17T13:40:32;36.20;1.00
29093;DHT22;16167;48.768;14.984;2023-08-17T13:43:03;36.40;1.00
29093;DHT22;16167;48.768;14.984;2023-08-17T13:45:31;36.50;1.00
29093;DHT22;16167;48.768;14.984;2023-08-17T13:48:01;36.60;1.00
29093;DHT22;16167;48.768;14.984;2023-08-17T13:50:31;36.80;1.00
29093;DHT22;16167;48.768;14.984;2023-08-17T13:52:59;36.70;1.00
29093;DHT22;16167;48.768;14.984;2023-08-17T13:55:28;36.40;1.00
29093;DHT22;16167;48.768;14.984;2023-08-17T13:57:56;35.60;1.00
29093;DHT22;16167;48.768;14.984;2023-08-17T14:00:25;35.00;1.00
29093;DHT22;16167;48.768;14.984;2023-08-17T14:02:53;34.40;1.00
29093;DHT22;16167;48.768;14.984;2023-08-17T14:05:21;33.90;1.00
29093;DHT22;16167;48.768;14.984;2023-08-17T14:07:50;33.50;1.00
29093;DHT22;16167;48.768;14.984;2023-08-17T14:10:18;33.80;1.00
29093;DHT22;16167;48.768;14.984;2023-08-17T14:13:03;34.10;1.00
29093;DHT22;16167;48.768;14.984;2023-08-17T14:15:31;34.50;1.00
29093;DHT22;16167;48.768;14.984;2023-08-17T14:17:59;34.60;1.00
29093;DHT22;16167;48.768;14.984;2023-08-17T14:20:27;34.70;1.00
29093;DHT22;16167;48.768;14.984;2023-08-17T14:22:56;34.70;1.00
29093;DHT22;16167;48.768;14.984;2023-08-17T14:25:24;34.80;1.00
29093;DHT22;16167;48.768;14.984;2023-08-17T14:27:52;34.80;1.00
29093;DHT22;16167;48.768;14.984;2023-08-17T14:30:21;34.90;1.00
29093;DHT22;16167;48.768;14.984;2023-08-17T14:32:51;35.10;1.00
29093;DHT22;16167;48.768;14.984;2023-08-17T14:35:18;34.90;1.00
29093;DHT22;16167;48.768;14.984;2023-08-17T14:37:46;34.70;1.00
29093;DHT22;16167;48.768;14.984;2023-08-17T14:40:16;34.60;1.00
29093;DHT22;16167;48.768;14.984;2023-08-17T14:42:45;34.40;1.00
29093;DHT22;16167;48.768;14.984;2023-08-17T14:45:13;34.40;1.00
29093;DHT22;16167;48.768;14.984;2023-08-17T14:47:40;34.20;1.00
29093;DHT22;16167;48.768;14.984;2023-08-17T14:50:09;33.90;1.00
29093;DHT22;16167;48.768;14.984;2023-08-17T14:52:37;33.70;1.00
29093;DHT22;16167;48.768;14.984;2023-08-17T14:55:05;33.40;1.00
29093;DHT22;16167;48.768;14.984;2023-08-17T14:57:35;33.30;1.00
29093;DHT22;16167;48.768;14.984;2023-08-17T15:00:03;33.00;1.00
29093;DHT22;16167;48.768;14.984;2023-08-17T15:02:31;32.80;1.00
29093;DHT22;16167;48.768;14.984;2023-08-17T15:04:59;32.40;1.00
29093;DHT22;16167;48.768;14.984;2023-08-17T15:07:27;32.20;1.00
29093;DHT22;16167;48.768;14.984;2023-08-17T15:09:56;32.10;1.00
29093;DHT22;16167;48.768;14.984;2023-08-17T15:12:24;31.80;1.00
29093;DHT22;16167;48.768;14.984;2023-08-17T15:14:53;31.60;1.00
29093;DHT22;16167;48.768;14.984;2023-08-17T15:17:22;31.40;1.00
29093;DHT22;16167;48.768;14.984;2023-08-17T15:19:50;31.20;1.00
29093;DHT22;16167;48.768;14.984;2023-08-17T15:22:19;31.10;1.00
29093;DHT22;16167;48.768;14.984;2023-08-17T15:24:46;31.10;1.00
29093;DHT22;16167;48.768;14.984;2023-08-17T15:27:14;30.90;1.00
29093;DHT22;16167;48.768;14.984;2023-08-17T15:29:42;30.70;1.00
29093;DHT22;16167;48.768;14.984;2023-08-17T15:32:12;30.70;1.00
29093;DHT22;16167;48.768;14.984;2023-08-17T15:34:40;30.80;1.00
29093;DHT22;16167;48.768;14.984;2023-08-17T15:37:08;30.70;1.00
29093;DHT22;16167;48.768;14.984;2023-08-17T15:39:38;30.70;1.00